Time;durP1;ratioP1;P1;durP2;ratioP2;P2;SDS_P1;SDS_P2;PMS_P1;PMS_P2;Temp;Humidity;BMP_temperature;BMP_pressure;BME280_temperature;BME280_humidity;BME280_pressure;Samples;Min_cycle;Max_cycle;Signal;HPM_P1;HPM_P2
2021/10/09 00:01:15;;;;;;;23.17;14.10;;;14.10;51.80;;;;;;5006319;28;20199;-85
2021/10/09 00:03:40;;;;;;;24.92;14.70;;;14.10;51.80;;;;;;4990359;28;20029;-85
2021/10/09 00:06:06;;;;;;;22.50;14.27;;;14.10;51.70;;;;;;4995119;28;20029;-85
2021/10/09 00:08:32;;;;;;;22.75;14.43;;;14.10;51.80;;;;;;5024806;28;20124;-85
2021/10/09 00:10:59;;;;;;;21.42;14.13;;;14.10;51.70;;;;;;5012394;28;20029;-86
2021/10/09 00:13:24;;;;;;;24.63;14.00;;;14.10;51.80;;;;;;4991560;28;20163;-86
2021/10/09 00:15:50;;;;;;;25.88;14.35;;;14.10;51.80;;;;;;4988358;28;20048;-87
2021/10/09 00:18:16;;;;;;;25.48;12.50;;;14.10;51.80;;;;;;5011175;28;20040;-88
2021/10/09 00:20:42;;;;;;;22.08;13.23;;;14.10;53.50;;;;;;5009474;28;20036;-87
2021/10/09 00:23:08;;;;;;;25.55;12.98;;;14.10;57.50;;;;;;5005824;28;20072;-87
2021/10/09 00:25:34;;;;;;;18.58;11.68;;;14.20;56.70;;;;;;5026134;28;20046;-86
2021/10/09 00:28:00;;;;;;;26.15;12.98;;;14.20;55.60;;;;;;5007283;28;20036;-86
2021/10/09 00:30:26;;;;;;;18.63;13.00;;;14.20;54.80;;;;;;4994125;28;20058;-85
2021/10/09 00:32:52;;;;;;;23.38;13.60;;;14.10;54.20;;;;;;5005645;28;20033;-86
2021/10/09 00:35:18;;;;;;;22.83;13.15;;;14.20;53.80;;;;;;4994925;28;20030;-89
2021/10/09 00:37:43;;;;;;;22.75;13.15;;;14.20;53.40;;;;;;5026803;28;20034;-87
2021/10/09 00:40:10;;;;;;;26.92;13.82;;;14.20;53.10;;;;;;5007195;28;20143;-88
2021/10/09 00:42:36;;;;;;;25.55;14.27;;;14.10;52.80;;;;;;4993625;28;20042;-86
2021/10/09 00:45:03;;;;;;;25.83;14.63;;;14.20;52.80;;;;;;5025193;28;20065;-85
2021/10/09 00:47:29;;;;;;;23.30;14.32;;;14.10;52.70;;;;;;5024797;28;20112;-87
2021/10/09 00:49:55;;;;;;;24.35;14.38;;;14.10;52.60;;;;;;5003629;28;20173;-89
2021/10/09 00:52:25;;;;;;;21.48;13.45;;;14.10;52.50;;;;;;5025793;28;20022;-87
2021/10/09 00:54:52;;;;;;;22.10;12.82;;;14.10;52.50;;;;;;5024588;28;20038;-91
2021/10/09 00:57:21;;;;;;;27.65;13.43;;;14.10;52.40;;;;;;5007713;28;20096;-87
2021/10/09 00:59:50;;;;;;;19.48;13.32;;;14.10;52.40;;;;;;4993850;28;20047;-87
2021/10/09 01:02:17;;;;;;;22.25;14.50;;;14.00;52.30;;;;;;5008395;28;20385;-88
2021/10/09 01:04:45;;;;;;;22.35;13.80;;;14.00;52.30;;;;;;5007038;28;20041;-86
2021/10/09 01:07:11;;;;;;;27.35;14.85;;;14.00;52.30;;;;;;5011697;28;20070;-86
2021/10/09 01:09:38;;;;;;;26.00;15.20;;;14.00;52.30;;;;;;4993743;28;20059;-88
2021/10/09 01:12:04;;;;;;;26.13;13.95;;;14.00;52.30;;;;;;5009822;28;20029;-86
2021/10/09 01:14:31;;;;;;;26.85;15.10;;;14.00;52.30;;;;;;5010986;28;20033;-87
2021/10/09 01:16:56;;;;;;;28.80;14.48;;;13.90;52.30;;;;;;4989404;28;20103;-87
2021/10/09 01:19:23;;;;;;;27.60;14.93;;;13.90;52.30;;;;;;5010041;28;20550;-87
2021/10/09 01:21:52;;;;;;;30.08;16.52;;;13.90;52.30;;;;;;5009321;28;20485;-87
2021/10/09 01:24:21;;;;;;;34.67;15.90;;;13.90;52.40;;;;;;5001329;28;20484;-87
2021/10/09 01:26:48;;;;;;;30.02;16.55;;;13.90;52.50;;;;;;5005673;28;20417;-86
2021/10/09 01:29:17;;;;;;;35.10;16.17;;;13.80;52.50;;;;;;5009778;28;20072;-88
2021/10/09 01:31:47;;;;;;;34.72;17.05;;;13.80;52.60;;;;;;5010167;28;20143;-88
2021/10/09 01:34:25;;;;;;;31.67;16.58;;;13.90;52.70;;;;;;5003189;28;20040;-88
2021/10/09 01:36:59;;;;;;;25.25;16.52;;;13.80;52.70;;;;;;5009495;28;20110;-89
2021/10/09 01:39:29;;;;;;;30.15;16.17;;;13.80;52.80;;;;;;4989134;28;20036;-88
2021/10/09 01:41:55;;;;;;;28.20;16.55;;;13.80;52.80;;;;;;4994554;28;20033;-89
2021/10/09 01:44:28;;;;;;;24.80;15.85;;;13.70;52.70;;;;;;4993496;28;20140;-88
2021/10/09 01:46:56;;;;;;;30.13;15.98;;;13.70;52.80;;;;;;4988771;28;20037;-87
2021/10/09 01:49:24;;;;;;;31.42;16.08;;;13.70;52.70;;;;;;5010138;28;20029;-86
2021/10/09 01:51:52;;;;;;;29.08;15.63;;;13.70;52.80;;;;;;5010684;28;20116;-87
2021/10/09 01:54:18;;;;;;;25.95;15.30;;;13.70;52.70;;;;;;5002523;28;20057;-88
2021/10/09 01:56:45;;;;;;;27.52;14.45;;;13.70;52.70;;;;;;5018533;28;20033;-85
2021/10/09 01:59:11;;;;;;;25.88;15.15;;;13.70;52.70;;;;;;5026003;28;20034;-88
2021/10/09 02:01:47;;;;;;;33.58;16.48;;;13.70;52.70;;;;;;5017721;28;20037;-88
2021/10/09 02:04:13;;;;;;;25.00;15.00;;;13.60;52.70;;;;;;5006538;28;20217;-90
2021/10/09 02:06:45;;;;;;;27.63;16.17;;;13.60;52.80;;;;;;4984761;28;20085;-90
2021/10/09 02:09:15;;;;;;;24.33;14.63;;;13.60;52.80;;;;;;5005103;28;20036;-87
2021/10/09 02:11:45;;;;;;;28.02;15.05;;;13.60;52.90;;;;;;5004838;28;20053;-89
2021/10/09 02:17:09;;;;;;;26.58;15.48;;;13.60;52.90;;;;;;5008296;28;20046;-89
2021/10/09 02:26:06;;;;;;;24.50;15.32;;;13.50;52.90;;;;;;5003994;28;20203;-89
2021/10/09 02:28:03;;;;;;;27.25;15.85;;;13.50;53.00;;;;;;5001796;28;20441;-88
2021/10/09 02:30:30;;;;;;;23.27;15.52;;;13.50;53.00;;;;;;5004058;28;20492;-89
2021/10/09 02:32:56;;;;;;;24.27;15.60;;;13.40;52.90;;;;;;5001567;28;20435;-88
2021/10/09 02:35:23;;;;;;;25.77;16.10;;;13.50;52.90;;;;;;5003315;28;20168;-87
2021/10/09 02:37:50;;;;;;;24.35;15.25;;;13.40;52.90;;;;;;4992790;28;20480;-87
2021/10/09 02:40:16;;;;;;;24.00;15.80;;;13.50;53.00;;;;;;5009816;28;20040;-87
2021/10/09 02:42:42;;;;;;;24.25;15.20;;;13.50;52.90;;;;;;5022199;28;20025;-87
2021/10/09 02:45:08;;;;;;;21.73;14.50;;;13.40;53.00;;;;;;5022513;28;20060;-87
2021/10/09 02:47:34;;;;;;;25.58;15.18;;;13.40;53.00;;;;;;4987829;28;20034;-88
2021/10/09 02:50:02;;;;;;;24.10;15.20;;;13.40;53.00;;;;;;4988888;28;20025;-87
2021/10/09 02:52:30;;;;;;;24.67;15.63;;;13.40;53.00;;;;;;5017010;28;20105;-88
2021/10/09 02:54:56;;;;;;;24.50;14.95;;;13.40;53.10;;;;;;5024461;28;20076;-90
2021/10/09 02:57:22;;;;;;;22.88;14.77;;;13.40;53.10;;;;;;5019130;28;20030;-88
2021/10/09 02:59:48;;;;;;;24.45;15.32;;;13.40;53.10;;;;;;4987622;28;20539;-87
2021/10/09 03:02:16;;;;;;;24.42;15.32;;;13.40;53.10;;;;;;4992470;28;20120;-89
2021/10/09 03:04:42;;;;;;;23.73;15.68;;;13.40;53.10;;;;;;5008445;28;20444;-88
2021/10/09 03:07:09;;;;;;;30.35;14.95;;;13.30;53.10;;;;;;5001751;28;20079;-90
2021/10/09 03:09:35;;;;;;;26.05;15.63;;;13.40;53.10;;;;;;4991809;28;20038;-88
2021/10/09 03:12:01;;;;;;;21.52;14.82;;;13.30;53.10;;;;;;5003845;28;20065;-87
2021/10/09 03:14:30;;;;;;;25.80;15.07;;;13.30;53.10;;;;;;4992146;28;20034;-86
2021/10/09 03:16:56;;;;;;;20.52;14.10;;;13.30;53.10;;;;;;4987338;28;20056;-86
2021/10/09 03:19:22;;;;;;;28.38;14.32;;;13.30;53.00;;;;;;5005381;28;20488;-86
2021/10/09 03:21:48;;;;;;;21.75;14.10;;;13.30;53.00;;;;;;5011840;28;20083;-86
2021/10/09 03:24:14;;;;;;;24.42;14.50;;;13.30;53.00;;;;;;5009409;28;20508;-86
2021/10/09 03:26:40;;;;;;;26.27;15.40;;;13.30;53.10;;;;;;5012343;28;20030;-85
2021/10/09 03:29:06;;;;;;;23.33;14.85;;;13.30;53.10;;;;;;5008301;28;20034;-88
2021/10/09 03:31:32;;;;;;;22.67;14.82;;;13.30;53.10;;;;;;4992583;28;20461;-86
2021/10/09 03:33:58;;;;;;;24.95;13.85;;;13.30;53.10;;;;;;5023921;28;20100;-89
2021/10/09 03:36:24;;;;;;;26.48;14.65;;;13.30;53.20;;;;;;5007387;28;20037;-85
2021/10/09 03:38:51;;;;;;;25.85;14.93;;;13.20;53.20;;;;;;4995968;28;20034;-90
2021/10/09 03:41:17;;;;;;;28.23;15.90;;;13.20;53.40;;;;;;5007726;28;20042;-92
2021/10/09 03:43:44;;;;;;;23.35;14.73;;;13.20;53.50;;;;;;4999759;28;20118;-87
2021/10/09 03:54:00;;;;;;;27.17;14.63;;;13.10;53.50;;;;;;5026237;28;20127;-88
2021/10/09 03:56:26;;;;;;;26.45;14.70;;;13.10;53.60;;;;;;4993675;28;20081;-89
2021/10/09 03:58:52;;;;;;;24.90;14.95;;;13.10;53.60;;;;;;5008337;28;20107;-92
2021/10/09 04:01:19;;;;;;;21.80;14.65;;;13.10;53.70;;;;;;5004423;28;20487;-82
2021/10/09 04:03:45;;;;;;;26.42;14.77;;;13.10;53.70;;;;;;5011003;28;20045;-85
2021/10/09 04:06:11;;;;;;;24.92;15.32;;;13.10;53.80;;;;;;5009662;28;20033;-85
2021/10/09 04:08:37;;;;;;;24.52;13.73;;;13.10;53.70;;;;;;5005877;28;20523;-85
2021/10/09 04:11:03;;;;;;;25.33;13.98;;;13.10;53.70;;;;;;5011055;28;20515;-85
2021/10/09 04:13:29;;;;;;;21.17;14.48;;;13.10;53.70;;;;;;5027629;28;20029;-85
2021/10/09 04:15:55;;;;;;;24.63;14.13;;;13.10;53.70;;;;;;5010923;28;20049;-85
2021/10/09 04:18:21;;;;;;;24.92;14.35;;;13.10;53.80;;;;;;5024319;28;20037;-85
2021/10/09 04:20:47;;;;;;;20.58;14.52;;;13.10;53.80;;;;;;5004821;28;20033;-85
2021/10/09 04:23:13;;;;;;;20.35;14.07;;;13.10;53.80;;;;;;5009121;28;20044;-85
2021/10/09 04:25:39;;;;;;;23.60;13.23;;;13.10;53.80;;;;;;4979606;28;20119;-86
2021/10/09 04:28:05;;;;;;;22.88;13.95;;;13.10;53.70;;;;;;5006112;28;20481;-85
2021/10/09 04:30:33;;;;;;;25.85;14.80;;;13.10;53.70;;;;;;5008889;28;20036;-84
2021/10/09 04:33:01;;;;;;;22.27;14.35;;;13.10;53.80;;;;;;4992148;28;20266;-86
2021/10/09 04:35:33;;;;;;;22.77;13.32;;;13.10;53.70;;;;;;5009395;28;20092;-87
2021/10/09 04:38:06;;;;;;;27.35;14.73;;;13.10;53.70;;;;;;4993668;28;20035;-87
2021/10/09 04:40:33;;;;;;;27.92;14.27;;;13.10;53.80;;;;;;4994698;28;20033;-86
2021/10/09 04:42:59;;;;;;;25.55;14.27;;;13.10;53.70;;;;;;5011418;28;20110;-86
2021/10/09 04:45:25;;;;;;;24.48;13.80;;;13.10;53.70;;;;;;4993091;28;20519;-84
2021/10/09 04:47:51;;;;;;;19.33;13.50;;;13.10;53.70;;;;;;5028569;28;20148;-86
2021/10/09 04:50:18;;;;;;;22.05;14.13;;;13.10;53.70;;;;;;5010228;28;20048;-87
2021/10/09 04:52:44;;;;;;;20.65;13.30;;;13.10;53.70;;;;;;4993901;28;20902;-85
2021/10/09 04:55:13;;;;;;;21.63;14.23;;;13.10;53.80;;;;;;5009276;28;20496;-84
2021/10/09 04:57:41;;;;;;;23.73;13.50;;;13.10;53.80;;;;;;5011014;28;20049;-86
2021/10/09 05:00:09;;;;;;;23.08;13.60;;;13.10;53.70;;;;;;5009671;28;20511;-85
2021/10/09 05:02:35;;;;;;;24.40;13.50;;;13.10;53.70;;;;;;5025767;28;20037;-85
2021/10/09 05:05:02;;;;;;;22.70;13.40;;;13.10;53.70;;;;;;5008701;28;20029;-85
2021/10/09 05:07:28;;;;;;;20.10;13.15;;;13.10;53.60;;;;;;5026906;28;20048;-84
2021/10/09 05:09:54;;;;;;;24.23;13.63;;;13.20;53.50;;;;;;5010895;28;20025;-86
2021/10/09 05:12:20;;;;;;;21.55;13.85;;;13.30;53.50;;;;;;5010140;28;20498;-86
2021/10/09 05:14:46;;;;;;;19.73;12.18;;;13.50;53.50;;;;;;4993848;28;20493;-85
2021/10/09 05:17:13;;;;;;;22.65;14.18;;;13.60;53.50;;;;;;5010387;28;20120;-86
2021/10/09 05:19:40;;;;;;;22.77;13.27;;;13.80;53.30;;;;;;5024598;28;20116;-88
2021/10/09 05:22:10;;;;;;;22.70;13.07;;;14.00;53.40;;;;;;5022829;28;20037;-85
2021/10/09 05:24:37;;;;;;;29.15;14.00;;;14.10;54.50;;;;;;5008556;28;21007;-85
2021/10/09 05:27:04;;;;;;;21.48;13.63;;;14.30;53.30;;;;;;5008074;28;21416;-82
2021/10/09 05:29:31;;;;;;;23.92;14.10;;;14.40;52.80;;;;;;5006777;28;20036;-84
2021/10/09 05:32:05;;;;;;;23.92;15.27;;;14.60;52.20;;;;;;4997995;28;20029;-84
2021/10/09 05:34:32;;;;;;;21.02;14.20;;;14.70;51.80;;;;;;5020607;28;20068;-84
2021/10/09 05:36:58;;;;;;;25.80;13.50;;;14.80;51.50;;;;;;5005674;28;20522;-82
2021/10/09 05:39:25;;;;;;;25.58;14.30;;;14.90;51.60;;;;;;5007902;28;20097;-84
2021/10/09 05:41:54;;;;;;;22.73;13.10;;;15.00;51.50;;;;;;5018666;28;20029;-84
2021/10/09 05:44:20;;;;;;;24.60;13.40;;;15.20;51.50;;;;;;5028250;28;20090;-86
2021/10/09 05:46:47;;;;;;;24.90;13.13;;;15.20;51.50;;;;;;4992337;28;20033;-86
2021/10/09 05:49:16;;;;;;;27.35;12.93;;;15.30;51.70;;;;;;5008914;28;20450;-86
2021/10/09 05:57:14;;;;;;;19.58;12.32;;;15.70;52.00;;;;;;5004746;28;20068;-90
2021/10/09 06:46:21;;;;;;;19.38;9.70;;;18.00;51.00;;;;;;5020192;28;20124;-86
2021/10/09 07:01:42;;;;;;;15.07;8.68;;;18.30;51.10;;;;;;5003250;28;20128;-83
2021/10/09 07:04:09;;;;;;;11.40;8.27;;;18.30;51.30;;;;;;5004166;28;20048;-85
2021/10/09 07:06:35;;;;;;;18.02;8.45;;;18.30;51.50;;;;;;5008180;28;20038;-87
2021/10/09 07:09:06;;;;;;;12.65;8.10;;;18.40;51.70;;;;;;5004120;28;20029;-86
2021/10/09 07:11:40;;;;;;;19.10;8.97;;;18.40;51.80;;;;;;5005572;28;20044;-86
2021/10/09 07:14:07;;;;;;;12.18;8.40;;;18.40;51.70;;;;;;5007604;28;20512;-87
2021/10/09 07:16:35;;;;;;;13.02;8.70;;;18.40;51.80;;;;;;4998123;28;20192;-86
2021/10/09 07:19:02;;;;;;;13.65;8.15;;;18.50;51.90;;;;;;5014587;28;20171;-86
2021/10/09 07:21:30;;;;;;;13.13;8.35;;;18.50;51.80;;;;;;5014675;28;20531;-86
2021/10/09 07:23:56;;;;;;;12.65;8.43;;;18.50;51.80;;;;;;5013390;28;20034;-87
2021/10/09 07:26:22;;;;;;;14.63;8.27;;;18.60;51.90;;;;;;5014378;28;20026;-85
2021/10/09 07:28:49;;;;;;;15.10;8.95;;;18.60;52.00;;;;;;5015414;28;20033;-86
2021/10/09 07:31:16;;;;;;;18.35;9.07;;;18.60;51.70;;;;;;5032204;28;20040;-86
2021/10/09 07:33:42;;;;;;;13.85;8.45;;;18.60;51.70;;;;;;5019513;28;20021;-92
2021/10/09 07:36:08;;;;;;;14.00;8.65;;;18.60;51.50;;;;;;5038414;28;20062;-91
2021/10/09 07:38:34;;;;;;;19.52;8.57;;;18.60;51.00;;;;;;5034509;28;20037;-89
2021/10/09 07:41:00;;;;;;;16.38;8.55;;;18.60;51.00;;;;;;5034679;28;20047;-92
2021/10/09 07:43:26;;;;;;;15.90;8.32;;;18.60;51.00;;;;;;5013023;28;20041;-91
2021/10/09 07:45:52;;;;;;;13.90;8.20;;;18.60;51.00;;;;;;5032406;28;20029;-90
2021/10/09 07:48:20;;;;;;;14.82;7.93;;;18.60;51.00;;;;;;5033406;28;20044;-93
2021/10/09 07:50:46;;;;;;;14.18;7.63;;;18.60;50.70;;;;;;5031740;28;20116;-90
2021/10/09 07:53:12;;;;;;;11.77;6.93;;;18.60;50.20;;;;;;5028335;28;20084;-90
2021/10/09 07:55:38;;;;;;;12.73;7.57;;;18.60;50.30;;;;;;5027950;28;20420;-88
2021/10/09 07:58:04;;;;;;;11.80;7.72;;;18.60;49.80;;;;;;5003108;28;20041;-88
2021/10/09 08:00:30;;;;;;;14.90;7.70;;;18.60;49.40;;;;;;5021290;28;20104;-89
2021/10/09 08:03:02;;;;;;;12.70;6.85;;;18.60;49.60;;;;;;5002897;28;20041;-89
2021/10/09 08:05:28;;;;;;;13.65;7.50;;;18.60;49.50;;;;;;5008789;28;20109;-91
2021/10/09 08:07:54;;;;;;;16.70;7.35;;;18.50;49.00;;;;;;5025508;28;20691;-91
2021/10/09 08:10:20;;;;;;;13.13;7.72;;;18.50;48.50;;;;;;5011601;28;20033;-91
2021/10/09 08:12:46;;;;;;;15.77;7.93;;;18.50;48.20;;;;;;5011928;28;20060;-90
2021/10/09 08:15:12;;;;;;;13.30;7.07;;;18.50;48.40;;;;;;5025530;28;20453;-89
2021/10/09 08:17:38;;;;;;;14.98;7.53;;;18.50;48.40;;;;;;4992101;28;20041;-88
2021/10/09 08:20:08;;;;;;;13.68;6.80;;;18.50;48.50;;;;;;5010916;28;20103;-89
2021/10/09 08:22:38;;;;;;;8.95;5.65;;;18.50;48.20;;;;;;5010110;28;20547;-90
2021/10/09 08:36:01;;;;;;;8.90;5.00;;;18.40;47.00;;;;;;5025285;28;20044;-91
2021/10/09 08:41:12;;;;;;;7.28;4.65;;;18.50;46.60;;;;;;5026005;28;20087;-93
2021/10/09 08:43:42;;;;;;;7.75;4.90;;;18.50;47.00;;;;;;5005921;28;20447;-93
2021/10/09 08:46:08;;;;;;;10.40;5.60;;;18.40;47.10;;;;;;5008599;28;20120;-91
2021/10/09 08:48:40;;;;;;;9.18;5.03;;;18.40;47.10;;;;;;5025177;28;20120;-88
2021/10/09 08:51:07;;;;;;;9.05;4.68;;;18.40;46.60;;;;;;5009353;28;20083;-87
2021/10/09 08:53:38;;;;;;;8.02;5.30;;;18.40;46.60;;;;;;5025662;28;20042;-88
2021/10/09 08:56:04;;;;;;;9.43;4.55;;;18.40;46.90;;;;;;5024303;28;20030;-93
2021/10/09 08:58:36;;;;;;;11.30;6.50;;;18.40;47.50;;;;;;5011341;28;20113;-93
2021/10/09 09:01:07;;;;;;;15.07;7.32;;;18.40;48.60;;;;;;5025419;28;20038;-87
2021/10/09 09:26:09;;;;;;;9.73;4.95;;;18.10;45.40;;;;;;5027696;28;20065;-86
2021/10/09 09:39:43;;;;;;;10.05;4.93;;;18.00;46.20;;;;;;5033420;28;20033;-86
2021/10/09 09:42:10;;;;;;;6.63;4.07;;;17.90;45.80;;;;;;5032873;28;20048;-85
2021/10/09 09:44:50;;;;;;;6.50;5.18;;;18.00;45.80;;;;;;4994742;28;20057;-85
2021/10/09 09:47:16;;;;;;;8.70;4.50;;;17.90;45.90;;;;;;4995976;28;20038;-85
2021/10/09 09:49:44;;;;;;;8.18;4.78;;;17.90;45.70;;;;;;5023732;28;20040;-85
2021/10/09 09:52:11;;;;;;;7.03;4.68;;;17.90;45.20;;;;;;5009432;28;20112;-85
2021/10/09 09:54:37;;;;;;;9.80;4.70;;;17.80;45.30;;;;;;5000626;28;20034;-85
2021/10/09 09:57:03;;;;;;;6.72;4.60;;;17.80;45.70;;;;;;5023107;28;20041;-85
2021/10/09 09:59:31;;;;;;;8.48;5.18;;;17.80;45.50;;;;;;5003523;28;20032;-85
2021/10/09 10:02:02;;;;;;;8.00;4.72;;;17.80;45.20;;;;;;5007127;28;20124;-85
2021/10/09 10:04:34;;;;;;;7.43;5.22;;;17.80;45.10;;;;;;5021272;28;20040;-87
2021/10/09 10:07:01;;;;;;;10.60;4.93;;;17.80;45.50;;;;;;5004625;28;20473;-86
2021/10/09 10:09:28;;;;;;;8.07;4.80;;;17.80;45.40;;;;;;5002728;28;20370;-85
2021/10/09 10:12:02;;;;;;;8.50;4.63;;;17.80;45.70;;;;;;5025374;28;20034;-85
2021/10/09 10:14:30;;;;;;;8.52;4.65;;;17.80;45.50;;;;;;5032841;28;20045;-85
2021/10/09 10:17:00;;;;;;;7.07;5.15;;;17.80;45.40;;;;;;5015565;28;20496;-85
2021/10/09 10:19:50;;;;;;;7.88;4.70;;;17.70;44.90;;;;;;5009969;28;20037;-85
2021/10/09 10:22:37;;;;;;;10.70;5.00;;;17.70;44.80;;;;;;5016047;28;20044;-84
2021/10/09 10:25:23;;;;;;;7.53;4.63;;;17.70;44.70;;;;;;5032875;28;20045;-87
2021/10/09 10:28:04;;;;;;;9.38;4.80;;;17.70;44.60;;;;;;5017330;28;21972;-87
2021/10/09 10:30:38;;;;;;;11.45;5.68;;;17.70;45.00;;;;;;5010707;28;20034;-87
2021/10/09 10:33:04;;;;;;;8.63;5.28;;;17.70;45.70;;;;;;5011620;28;20602;-86
2021/10/09 10:35:30;;;;;;;9.35;5.50;;;17.70;46.00;;;;;;5028858;28;20037;-86
2021/10/09 10:38:01;;;;;;;10.20;5.80;;;17.80;45.70;;;;;;5031146;28;20049;-86
2021/10/09 10:40:46;;;;;;;11.98;6.10;;;17.80;45.70;;;;;;5027004;28;20045;-86
2021/10/09 10:46:21;;;;;;;8.45;5.88;;;17.80;45.70;;;;;;5032487;28;20041;-86
2021/10/09 10:49:05;;;;;;;9.45;5.50;;;17.80;45.30;;;;;;5014992;28;20033;-86
2021/10/09 10:59:46;;;;;;;10.18;6.53;;;17.80;45.50;;;;;;5032683;28;20064;-86
2021/10/09 11:02:22;;;;;;;14.25;6.85;;;17.80;45.40;;;;;;5014758;28;20477;-86
2021/10/09 11:04:50;;;;;;;8.20;6.78;;;17.80;45.90;;;;;;4997255;28;20041;-86
2021/10/09 11:07:18;;;;;;;10.48;7.25;;;17.80;46.10;;;;;;4998198;28;20120;-86
2021/10/09 11:09:44;;;;;;;11.05;6.82;;;17.90;46.10;;;;;;5032273;28;20033;-86
2021/10/09 11:12:22;;;;;;;11.48;6.95;;;17.80;46.10;;;;;;5032671;28;20029;-85
2021/10/09 11:14:49;;;;;;;9.00;6.57;;;17.90;46.20;;;;;;5014445;28;20041;-85
2021/10/09 11:17:15;;;;;;;12.85;7.38;;;17.80;46.10;;;;;;5015484;28;20037;-87
2021/10/09 11:19:50;;;;;;;10.35;7.20;;;17.90;46.00;;;;;;5015373;28;20037;-86
2021/10/09 11:22:20;;;;;;;10.70;7.60;;;17.80;45.90;;;;;;5032549;28;20087;-85
2021/10/09 11:24:47;;;;;;;11.13;7.28;;;17.80;46.10;;;;;;5013360;28;20079;-86
2021/10/09 11:27:15;;;;;;;11.65;7.53;;;17.90;46.30;;;;;;5013036;28;20499;-86
2021/10/09 11:29:59;;;;;;;14.85;7.55;;;17.80;45.90;;;;;;5006081;28;21039;-84
2021/10/09 11:32:33;;;;;;;11.60;7.50;;;17.80;45.80;;;;;;5024667;28;20056;-85
2021/10/09 11:34:59;;;;;;;9.38;7.20;;;17.80;45.70;;;;;;5007798;28;20091;-84
2021/10/09 11:37:25;;;;;;;14.90;7.47;;;17.80;45.40;;;;;;5007279;28;21543;-85
2021/10/09 11:39:56;;;;;;;14.00;7.38;;;17.80;45.10;;;;;;5003314;28;20056;-85
2021/10/09 11:42:26;;;;;;;13.13;6.78;;;17.70;45.30;;;;;;5025284;28;20053;-86
2021/10/09 11:45:06;;;;;;;10.10;6.50;;;17.70;45.20;;;;;;5025038;28;20033;-89
2021/10/09 11:56:22;;;;;;;10.73;6.30;;;17.80;44.90;;;;;;5022577;28;20590;-87
2021/10/09 11:59:08;;;;;;;10.95;6.43;;;17.70;44.40;;;;;;5010428;28;20523;-87
2021/10/09 12:01:47;;;;;;;11.50;6.15;;;17.70;44.10;;;;;;5001615;28;20041;-88
2021/10/09 12:04:20;;;;;;;17.88;7.15;;;17.70;44.60;;;;;;5016898;28;20037;-87
2021/10/09 12:09:58;;;;;;;9.43;6.38;;;17.70;44.40;;;;;;5018292;28;20056;-89
2021/10/09 12:12:34;;;;;;;10.57;6.20;;;17.70;44.80;;;;;;5026411;28;20041;-90
2021/10/09 12:15:00;;;;;;;11.15;5.95;;;17.70;45.20;;;;;;5028604;28;20029;-89
2021/10/09 12:17:37;;;;;;;11.27;6.32;;;17.70;45.60;;;;;;5013884;28;20496;-90
2021/10/09 12:22:59;;;;;;;12.93;7.22;;;17.70;44.70;;;;;;4999031;28;20052;-90
2021/10/09 12:25:26;;;;;;;9.52;6.70;;;17.70;44.80;;;;;;4995186;28;20449;-89
2021/10/09 12:28:02;;;;;;;10.50;6.00;;;17.70;45.10;;;;;;5010484;28;20103;-92
2021/10/09 12:30:47;;;;;;;;;;;;;;;;;;;;;
2021/10/09 12:33:38;;;;;;;9.98;6.18;;;17.70;44.70;;;;;;5009398;28;19936;-85
2021/10/09 12:40:14;;;;;;;11.95;5.30;;;17.70;44.30;;;;;;5020959;28;20033;-89
2021/10/09 12:43:35;;;;;;;8.65;5.22;;;17.70;44.60;;;;;;5002656;28;20076;-90
2021/10/09 12:46:20;;;;;;;;;;;;;;;;;;;;;
2021/10/09 12:48:50;;;;;;;6.78;5.03;;;17.70;44.80;;;;;;5049883;28;20041;-91
2021/10/09 12:51:16;;;;;;;10.98;5.28;;;17.70;44.70;;;;;;5020694;28;20018;-92
2021/10/09 12:53:43;;;;;;;7.18;5.20;;;17.70;44.80;;;;;;5030402;28;20025;-93
2021/10/09 12:56:09;;;;;;;9.68;5.30;;;17.70;44.50;;;;;;5037417;28;20089;-95
2021/10/09 12:58:36;;;;;;;7.28;5.20;;;17.70;43.80;;;;;;5017828;28;20044;-92
2021/10/09 13:01:02;;;;;;;7.97;4.80;;;17.70;44.00;;;;;;5015652;28;20033;-93
2021/10/09 13:03:28;;;;;;;10.65;5.30;;;17.70;43.50;;;;;;5019805;28;20511;-92
2021/10/09 13:05:54;;;;;;;9.25;5.03;;;17.60;43.40;;;;;;5018433;28;20090;-91
2021/10/09 13:08:20;;;;;;;9.93;5.82;;;17.60;43.40;;;;;;5016492;28;20014;-92
2021/10/09 13:10:49;;;;;;;8.82;4.70;;;17.60;43.00;;;;;;5020341;28;20059;-94
2021/10/09 13:13:15;;;;;;;16.23;5.55;;;17.60;43.40;;;;;;5004825;23;20073;-95
2021/10/09 13:15:41;;;;;;;12.52;5.43;;;17.60;43.60;;;;;;5000969;28;20041;-95
2021/10/09 13:18:07;;;;;;;9.32;5.00;;;17.60;43.50;;;;;;5017342;28;20025;-95
2021/10/09 13:20:37;;;;;;;6.57;4.65;;;17.50;43.20;;;;;;4999711;28;20022;-92
2021/10/09 13:23:03;;;;;;;10.05;5.10;;;17.50;43.50;;;;;;5006111;28;20045;-92
2021/10/09 13:25:30;;;;;;;9.05;4.90;;;17.60;43.40;;;;;;4986051;28;20049;-96
2021/10/09 13:27:57;;;;;;;10.60;5.00;;;17.60;43.70;;;;;;4980540;28;20111;-93
2021/10/09 13:30:23;;;;;;;9.23;4.93;;;17.50;43.40;;;;;;4979402;28;20049;-91
2021/10/09 13:32:49;;;;;;;11.73;4.75;;;17.60;43.80;;;;;;4995921;28;20026;-95
2021/10/09 13:35:15;;;;;;;8.80;5.53;;;17.60;44.00;;;;;;4991988;28;20519;-92
2021/10/09 13:38:00;;;;;;;11.48;4.72;;;17.60;43.90;;;;;;4980649;28;20029;-93
2021/10/09 13:40:26;;;;;;;6.10;4.93;;;17.60;43.60;;;;;;4993963;28;20030;-93
2021/10/09 13:42:52;;;;;;;7.28;4.45;;;17.60;44.10;;;;;;4994520;28;20039;-92
2021/10/09 13:45:18;;;;;;;7.15;4.60;;;17.60;43.90;;;;;;4995884;28;20038;-88
2021/10/09 13:47:44;;;;;;;7.90;4.95;;;17.50;43.20;;;;;;5010448;28;20040;-90
2021/10/09 13:50:12;;;;;;;10.10;5.68;;;17.60;42.80;;;;;;4991961;28;20471;-90
2021/10/09 13:52:39;;;;;;;11.23;4.95;;;17.50;42.80;;;;;;4991366;28;20160;-89
2021/10/09 13:55:06;;;;;;;9.32;4.95;;;17.50;43.10;;;;;;5003648;28;20038;-91
2021/10/09 13:57:31;;;;;;;8.30;4.88;;;17.40;43.10;;;;;;4992298;28;20417;-91
2021/10/09 13:59:57;;;;;;;9.90;5.30;;;17.50;43.20;;;;;;5010364;28;20037;-90
2021/10/09 14:02:24;;;;;;;9.82;5.35;;;17.40;43.90;;;;;;4998233;28;20033;-87
2021/10/09 14:04:50;;;;;;;12.63;4.78;;;17.40;43.50;;;;;;5020912;28;20129;-86
2021/10/09 14:07:16;;;;;;;9.52;4.60;;;17.40;42.90;;;;;;5009513;28;20124;-85
2021/10/09 14:09:42;;;;;;;7.72;4.38;;;17.30;42.80;;;;;;4992636;28;20144;-85
2021/10/09 14:12:10;;;;;;;7.80;5.18;;;17.40;42.90;;;;;;5006917;28;20143;-85
2021/10/09 14:14:37;;;;;;;7.90;4.28;;;17.30;42.80;;;;;;4992890;28;20033;-88
2021/10/09 14:17:03;;;;;;;8.52;4.60;;;17.30;42.90;;;;;;4992511;28;20034;-85
2021/10/09 14:19:29;;;;;;;6.25;4.43;;;17.30;42.80;;;;;;4993058;28;20044;-85
2021/10/09 14:21:56;;;;;;;7.38;4.60;;;17.20;42.70;;;;;;4993277;28;20041;-86
2021/10/09 14:24:22;;;;;;;12.77;4.75;;;17.20;43.10;;;;;;4993619;28;20042;-84
2021/10/09 14:26:48;;;;;;;7.05;4.93;;;17.20;43.20;;;;;;5005363;28;20040;-88
2021/10/09 14:29:14;;;;;;;8.57;4.65;;;17.20;43.20;;;;;;5009442;28;20061;-87
2021/10/09 14:31:40;;;;;;;10.13;4.45;;;17.10;42.90;;;;;;4993295;28;20496;-90
2021/10/09 14:34:07;;;;;;;8.20;4.43;;;17.10;43.00;;;;;;5010310;28;20056;-87
2021/10/09 14:36:33;;;;;;;10.90;4.53;;;17.10;43.00;;;;;;5010200;28;20413;-91
2021/10/09 14:38:59;;;;;;;8.20;4.88;;;17.10;43.30;;;;;;4991838;28;20034;-90
2021/10/09 14:41:25;;;;;;;7.93;4.50;;;17.10;43.90;;;;;;5008401;28;20081;-91
2021/10/09 14:43:51;;;;;;;6.07;4.35;;;17.10;45.00;;;;;;5016891;28;20038;-92
2021/10/09 14:49:06;;;;;;;8.48;4.85;;;17.30;46.10;;;;;;4999266;28;20033;-93
2021/10/09 15:18:32;;;;;;;9.15;6.18;;;17.40;46.50;;;;;;5002318;28;20124;-85
2021/10/09 15:20:59;;;;;;;11.57;7.13;;;17.50;46.50;;;;;;5015025;28;20124;-86
2021/10/09 15:23:25;;;;;;;15.15;6.57;;;17.40;46.30;;;;;;5015910;28;20034;-86
2021/10/09 15:25:51;;;;;;;12.23;6.15;;;17.40;46.40;;;;;;4998157;28;20038;-86
2021/10/09 15:28:20;;;;;;;11.90;6.93;;;17.40;46.40;;;;;;5017283;28;20448;-85
2021/10/09 15:30:46;;;;;;;14.40;6.40;;;17.40;46.50;;;;;;5017194;28;20068;-87
2021/10/09 15:33:13;;;;;;;9.02;5.90;;;17.40;46.50;;;;;;5017798;28;20057;-85
2021/10/09 15:35:40;;;;;;;12.02;6.47;;;17.40;46.50;;;;;;5019027;28;20124;-88
2021/10/09 15:38:07;;;;;;;8.02;6.03;;;17.40;46.70;;;;;;5032486;28;20048;-87
2021/10/09 15:40:33;;;;;;;12.73;7.05;;;17.30;46.60;;;;;;5006375;28;20026;-87
2021/10/09 15:43:00;;;;;;;12.85;6.57;;;17.30;46.80;;;;;;4998951;28;20034;-88
2021/10/09 15:45:26;;;;;;;9.25;6.45;;;17.40;47.00;;;;;;5031478;28;20033;-87
2021/10/09 15:47:52;;;;;;;10.18;6.30;;;17.30;47.20;;;;;;5012440;28;20033;-87
2021/10/09 15:50:23;;;;;;;10.98;6.78;;;17.30;47.20;;;;;;5012549;28;20033;-85
2021/10/09 15:52:49;;;;;;;12.32;6.60;;;17.30;47.40;;;;;;5001164;28;20042;-84